Time;durP1;ratioP1;P1;durP2;ratioP2;P2;SDS_P1;SDS_P2;PMS_P1;PMS_P2;Temp;Humidity;BMP_temperature;BMP_pressure;BME280_temperature;BME280_humidity;BME280_pressure;Samples;Min_cycle;Max_cycle;Signal;HPM_P1;HPM_P2
2021/05/03 00:02:36;;;;;;;;;;;;;;;;;;4385994;32;19998;-96
2021/05/03 00:05:45;;;;;;;;;;;;;;;;;;4394237;32;19959;-96
2021/05/03 00:08:53;;;;;;;;;;;;;;;;;;4375889;32;20328;-96
2021/05/03 00:11:35;;;;;;;;;;;;;;;;;;4382378;32;19937;-96
2021/05/03 00:15:00;;;;;;;;;;;;;;;;;;4382192;32;19951;-96
2021/05/03 00:18:30;;;;;;;;;;;;;;;;;;4405252;32;19981;-96
2021/05/03 00:21:06;;;;;;;;;;;;;;;;;;4404153;32;19958;-96
2021/05/03 00:24:05;;;;;;;;;;;;;;;;;;4383657;32;20066;-96
2021/05/03 00:32:44;;;;;;;;;;;;;;;;;;4413805;32;19969;-96
2021/05/03 00:35:43;;;;;;;;;;;;;;;;;;4398355;32;19969;-96
2021/05/03 00:38:29;;;;;;;;;;;;;;;;;;4384642;32;20041;-96
2021/05/03 00:41:35;;;;;;;;;;;;;;;;;;4366171;32;19961;-96
2021/05/03 00:47:43;;;;;;;;;;;;;;;;;;4414230;32;19946;-96
2021/05/03 00:50:29;;;;;;;;;;;;;;;;;;4402441;32;20037;-96
2021/05/03 00:53:24;;;;;;;;;;;;;;;;;;4399977;32;20029;-96
2021/05/03 00:56:15;;;;;;;;;;;;;;;;;;4396356;32;20005;-96
2021/05/03 00:58:53;;;;;;;;;;;;;;;;;;4397114;32;20014;-96
2021/05/03 01:02:07;;;;;;;;;;;;;;;;;;4395603;32;19972;-96
2021/05/03 01:05:17;;;;;;;;;;;;;;;;;;4405323;32;19946;-96
2021/05/03 01:08:16;;;;;;;;;;;;;;;;;;4369677;32;20413;-96
2021/05/03 01:14:44;;;;;;;;;;;;;;;;;;4412794;32;19980;-96
2021/05/03 01:17:42;;;;;;;;;;;;;;;;;;4409486;32;19951;-96
2021/05/03 01:23:41;;;;;;;;;;;;;;;;;;4378035;32;19958;-96
2021/05/03 01:27:04;;;;;;;;;;;;;;;;;;4391486;32;19981;-96
2021/05/03 01:30:03;;;;;;;;;;;;;;;;;;4412820;32;19955;-96
2021/05/03 01:32:52;;;;;;;;;;;;;;;;;;4381602;32;19990;-96
2021/05/03 01:36:07;;;;;;;;;;;;;;;;;;4370002;32;19964;-96
2021/05/03 01:39:13;;;;;;;;;;;;;;;;;;4397122;32;19943;-96
2021/05/03 01:41:42;;;;;;;;;;;;;;;;;;4403965;32;20008;-96
2021/05/03 01:44:18;;;;;;;;;;;;;;;;;;4404909;32;19962;-96
2021/05/03 01:47:21;;;;;;;;;;;;;;;;;;4417235;32;19923;-96
2021/05/03 01:50:46;;;;;;;;;;;;;;;;;;4400818;32;20355;-95
2021/05/03 01:53:47;;;;;;;;;;;;;;;;;;4405453;32;19985;-96
2021/05/03 01:56:38;;;;;;;;;;;;;;;;;;4391700;32;19946;-96
2021/05/03 02:03:30;;;;;;;;;;;;;;;;;;4409003;32;20279;-96
2021/05/03 02:06:34;;;;;;;;;;;;;;;;;;4410481;32;19954;-96
2021/05/03 02:09:36;;;;;;;;;;;;;;;;;;4392113;32;20006;-96
2021/05/03 02:12:39;;;;;;;;;;;;;;;;;;4397116;32;20373;-96
2021/05/03 02:15:21;;;;;;;;;;;;;;;;;;4384241;32;19976;-96
2021/05/03 02:18:15;;;;;;;;;;;;;;;;;;4394065;32;19958;-95
2021/05/03 02:21:08;;;;;;;;;;;;;;;;;;4401661;32;19947;-96
2021/05/03 02:24:04;;;;;;;;;;;;;;;;;;4402430;32;19978;-96
2021/05/03 02:26:42;;;;;;;;;;;;;;;;;;4417015;32;19942;-96
2021/05/03 02:29:38;;;;;;;;;;;;;;;;;;4389622;32;19968;-94
2021/05/03 02:32:39;;;;;;;;;;;;;;;;;;4395332;32;19970;-96
2021/05/03 02:35:16;;;;;;;;;;;;;;;;;;4400059;32;20010;-96
2021/05/03 02:38:07;;;;;;;;;;;;;;;;;;4393185;32;19951;-96
2021/05/03 02:41:13;;;;;;;;;;;;;;;;;;4387561;32;20006;-96
2021/05/03 02:43:47;;;;;;;;;;;;;;;;;;4386148;32;19998;-96
2021/05/03 02:46:41;;;;;;;;;;;;;;;;;;4384898;32;20006;-96
2021/05/03 02:49:42;;;;;;;;;;;;;;;;;;4378288;32;19943;-96
2021/05/03 02:52:54;;;;;;;;;;;;;;;;;;4381741;32;20390;-96
2021/05/03 02:55:50;;;;;;;;;;;;;;;;;;4389351;32;19962;-96
2021/05/03 02:58:37;;;;;;;;;;;;;;;;;;4389160;32;19955;-96
2021/05/03 03:01:20;;;;;;;;;;;;;;;;;;4385040;32;20279;-95
2021/05/03 03:04:06;;;;;;;;;;;;;;;;;;4402400;32;19943;-96
2021/05/03 03:07:11;;;;;;;;;;;;;;;;;;4384998;32;20090;-96
2021/05/03 03:09:54;;;;;;;;;;;;;;;;;;4401131;32;19965;-96
2021/05/03 03:12:46;;;;;;;;;;;;;;;;;;4378349;32;20025;-96
2021/05/03 03:15:33;;;;;;;;;;;;;;;;;;4386714;32;19943;-96
2021/05/03 03:18:24;;;;;;;;;;;;;;;;;;4385374;32;19998;-96
2021/05/03 03:21:45;;;;;;;;;;;;;;;;;;4390902;32;19994;-96
2021/05/03 03:24:28;;;;;;;;;;;;;;;;;;4389947;32;19951;-96
2021/05/03 03:30:17;;;;;;;;;;;;;;;;;;4410240;32;20017;-96
2021/05/03 03:32:51;;;;;;;;;;;;;;;;;;4392908;32;19978;-96
2021/05/03 03:35:20;;;;;;;;;;;;;;;;;;4395778;32;19954;-96
2021/05/03 03:38:14;;;;;;;;;;;;;;;;;;4372857;32;19992;-96
2021/05/03 03:40:45;;;;;;;;;;;;;;;;;;4396090;32;20058;-95
2021/05/03 03:43:19;;;;;;;;;;;;;;;;;;4394977;32;20433;-96
2021/05/03 03:45:47;;;;;;;;;;;;;;;;;;4392471;32;19954;-94
2021/05/03 03:48:25;;;;;;;;;;;;;;;;;;4374959;32;19957;-94
2021/05/03 03:50:58;;;;;;;;;;;;;;;;;;4400216;32;19955;-96
2021/05/03 03:53:37;;;;;;;;;;;;;;;;;;4394531;32;19950;-95
2021/05/03 03:56:16;;;;;;;;;;;;;;;;;;4396701;32;19969;-95
2021/05/03 03:58:50;;;;;;;;;;;;;;;;;;4390750;32;19954;-96
2021/05/03 04:01:28;;;;;;;;;;;;;;;;;;4394533;32;19947;-96
2021/05/03 04:04:03;;;;;;;;;;;;;;;;;;4381312;32;19984;-96
2021/05/03 04:06:55;;;;;;;;;;;;;;;;;;4404760;32;20217;-96
2021/05/03 04:10:00;;;;;;;;;;;;;;;;;;4380493;32;19946;-96
2021/05/03 04:21:32;;;;;;;;;;;;;;;;;;4401458;32;19977;-95
2021/05/03 04:24:27;;;;;;;;;;;;;;;;;;4379726;32;20015;-95
2021/05/03 04:26:57;;;;;;;;;;;;;;;;;;4380804;32;19956;-95
2021/05/03 04:29:30;;;;;;;;;;;;;;;;;;4386625;32;19991;-96
2021/05/03 04:32:08;;;;;;;;;;;;;;;;;;4382069;32;19954;-95
2021/05/03 04:35:01;;;;;;;;;;;;;;;;;;4382767;32;19957;-95
2021/05/03 04:37:33;;;;;;;;;;;;;;;;;;4389860;32;19962;-96
2021/05/03 04:40:20;;;;;;;;;;;;;;;;;;4392616;32;19954;-95
2021/05/03 04:43:08;;;;;;;;;;;;;;;;;;4393533;32;20047;-95
2021/05/03 04:45:51;;;;;;;;;;;;;;;;;;4390601;32;20291;-96
2021/05/03 04:48:27;;;;;;;;;;;;;;;;;;4378540;32;19972;-95
2021/05/03 04:51:08;;;;;;;;;;;;;;;;;;4391348;32;19947;-96
2021/05/03 04:54:01;;;;;;;;;;;;;;;;;;4390608;32;19950;-96
2021/05/03 04:56:37;;;;;;;;;;;;;;;;;;4394553;32;20309;-96
2021/05/03 04:59:20;;;;;;;;;;;;;;;;;;4391832;32;19954;-96
2021/05/03 05:01:49;;;;;;;;;;;;;;;;;;4380069;32;19988;-95
2021/05/03 05:04:20;;;;;;;;;;;;;;;;;;4388656;32;20002;-96
2021/05/03 05:07:08;;;;;;;;;;;;;;;;;;4392874;32;20019;-95
2021/05/03 05:09:47;;;;;;;;;;;;;;;;;;4406286;32;19969;-95
2021/05/03 05:12:24;;;;;;;;;;;;;;;;;;4389393;32;19997;-95
2021/05/03 05:15:05;;;;;;;;;;;;;;;;;;4391122;32;19958;-95
2021/05/03 05:17:33;;;;;;;;;;;;;;;;;;4393202;32;19950;-96
2021/05/03 05:20:12;;;;;;;;;;;;;;;;;;4390197;32;20028;-96
2021/05/03 05:22:43;;;;;;;;;;;;;;;;;;4390027;32;20046;-95
2021/05/03 05:25:32;;;;;;;;;;;;;;;;;;4403144;32;19954;-95
2021/05/03 05:28:00;;;;;;;;;;;;;;;;;;4396306;32;19953;-96
2021/05/03 05:30:44;;;;;;;;;;;;;;;;;;4394060;32;19951;-95
2021/05/03 05:33:24;;;;;;;;;;;;;;;;;;4379805;32;19994;-95
2021/05/03 05:36:01;;;;;;;;;;;;;;;;;;4369544;32;19965;-96
2021/05/03 05:38:36;;;;;;;;;;;;;;;;;;4383639;32;20348;-95
2021/05/03 05:41:09;;;;;;;;;;;;;;;;;;4376910;32;19950;-95
2021/05/03 05:43:50;;;;;;;;;;;;;;;;;;;;;
2021/05/03 05:46:25;;;;;;;;;;;;;;;;;;4394413;32;19946;-94
2021/05/03 05:49:19;;;;;;;;;;;;;;;;;;4384070;32;20326;-96
2021/05/03 05:51:57;;;;;;;;;;;;;;;;;;4370241;32;19955;-96
2021/05/03 05:54:45;;;;;;;;;;;;;;;;;;4377825;32;20104;-95
2021/05/03 05:57:39;;;;;;;;;;;;;;;;;;4366608;32;19955;-96
2021/05/03 06:00:37;;;;;;;;;;;;;;;;;;4373341;32;20038;-96
2021/05/03 06:03:36;;;;;;;;;;;;;;;;;;4386345;32;19982;-96
2021/05/03 06:06:12;;;;;;;;;;;;;;;;;;4375182;32;19973;-95
2021/05/03 06:09:01;;;;;;;;;;;;;;;;;;4386816;32;19981;-96
2021/05/03 06:11:38;;;;;;;;;;;;;;;;;;4370996;32;19998;-96
2021/05/03 06:14:53;;;;;;;;;;;;;;;;;;4373583;32;19942;-96
2021/05/03 06:20:52;;;;;;;;;;;;;;;;;;4385650;32;19955;-95
2021/05/03 06:23:27;;;;;;;;;;;;;;;;;;4365656;32;20001;-95
2021/05/03 06:26:17;;;;;;;;;;;;;;;;;;4373412;32;20017;-95
2021/05/03 06:28:50;;;;;;;;;;;;;;;;;;4376248;32;19954;-95
2021/05/03 06:31:31;;;;;;;;;;;;;;;;;;4369448;32;19988;-96
2021/05/03 06:34:01;;;;;;;;;;;;;;;;;;4375878;32;19989;-95
2021/05/03 06:36:38;;;;;;;;;;;;;;;;;;4373198;32;19969;-95
2021/05/03 06:39:37;;;;;;;;;;;;;;;;;;4382830;32;20002;-95
2021/05/03 06:42:16;;;;;;;;;;;;;;;;;;4378069;32;19940;-96
2021/05/03 06:44:48;;;;;;;;;;;;;;;;;;4379122;32;19963;-96
2021/05/03 06:47:38;;;;;;;;;;;;;;;;;;4393997;32;19947;-96
2021/05/03 06:50:22;;;;;;;;;;;;;;;;;;4392929;32;19962;-96
2021/05/03 06:53:13;;;;;;;;;;;;;;;;;;4383778;32;20016;-96
2021/05/03 06:55:55;;;;;;;;;;;;;;;;;;4385804;32;20082;-95
2021/05/03 06:58:32;;;;;;;;;;;;;;;;;;4391653;32;19951;-96
2021/05/03 07:01:10;;;;;;;;;;;;;;;;;;4372777;32;20021;-95
2021/05/03 07:03:48;;;;;;;;;;;;;;;;;;4378145;32;20368;-96
2021/05/03 07:06:32;;;;;;;;;;;;;;;;;;4394087;32;19982;-96
2021/05/03 07:09:09;;;;;;;;;;;;;;;;;;4375403;32;19950;-96
2021/05/03 07:11:57;;;;;;;;;;;;;;;;;;;;;
2021/05/03 07:14:35;;;;;;;;;;;;;;;;;;4386001;32;19955;-96
2021/05/03 07:17:07;;;;;;;;;;;;;;;;;;4392054;32;20045;-96
2021/05/03 07:20:00;;;;;;;;;;;;;;;;;;4392930;32;20017;-96
2021/05/03 07:22:51;;;;;;;;;;;;;;;;;;4385723;32;19951;-96
2021/05/03 07:25:27;;;;;;;;;;;;;;;;;;4394715;32;19951;-96
2021/05/03 07:28:05;;;;;;;;;;;;;;;;;;4379035;32;19977;-96
2021/05/03 07:30:35;;;;;;;;;;;;;;;;;;4383722;32;19965;-96
2021/05/03 07:33:10;;;;;;;;;;;;;;;;;;4376051;32;19976;-96
2021/05/03 07:35:46;;;;;;;;;;;;;;;;;;4365866;32;19943;-96
2021/05/03 07:38:27;;;;;;;;;;;;;;;;;;4401248;32;20303;-96
2021/05/03 07:40:56;;;;;;;;;;;;;;;;;;4376586;32;20009;-96
2021/05/03 07:43:31;;;;;;;;;;;;;;;;;;4366731;32;19957;-95
2021/05/03 07:46:06;;;;;;;;;;;;;;;;;;4377529;32;20037;-96
2021/05/03 07:48:56;;;;;;;;;;;;;;;;;;4371555;32;19959;-96
2021/05/03 07:51:37;;;;;;;;;;;;;;;;;;4390574;32;19959;-96
2021/05/03 07:54:19;;;;;;;;;;;;;;;;;;4384075;32;20340;-96
2021/05/03 07:57:06;;;;;;;;;;;;;;;;;;4385647;32;20006;-96
2021/05/03 07:59:40;;;;;;;;;;;;;;;;;;4383163;32;20622;-96
2021/05/03 08:02:18;;;;;;;;;;;;;;;;;;4375663;32;19966;-96
2021/05/03 08:04:58;;;;;;;;;;;;;;;;;;4389293;32;19978;-96
2021/05/03 08:07:32;;;;;;;;;;;;;;;;;;4368631;32;20013;-96
2021/05/03 08:13:29;;;;;;;;;;;;;;;;;;4383353;32;19967;-96
2021/05/03 08:16:36;;;;;;;;;;;;;;;;;;4372276;32;19959;-96
2021/05/03 08:19:55;;;;;;;;;;;;;;;;;;4325066;33;19948;-96
2021/05/03 08:22:54;;;;;;;;;;;;;;;;;;4302114;33;19975;-96
2021/05/03 08:28:53;;;;;;;;;;;;;;;;;;4402489;32;19947;-96
2021/05/03 08:31:29;;;;;;;;;;;;;;;;;;4391255;32;19970;-96
2021/05/03 08:34:38;;;;;;;;;;;;;;;;;;4386622;32;19954;-96
2021/05/03 08:37:45;;;;;;;;;;;;;;;;;;4391965;32;19996;-96
2021/05/03 08:40:47;;;;;;;;;;;;;;;;;;4372447;32;19958;-96
2021/05/03 08:44:09;;;;;;;;;;;;;;;;;;4391258;32;19966;-96
2021/05/03 08:48:03;;;;;;;;;;;;;;;;;;;;;
2021/05/03 08:55:00;;;;;;;;;;;;;;;;;;4307336;33;19984;-96
2021/05/03 09:02:30;;;;;;;;;;;;;;;;;;;;;
2021/05/03 09:09:33;;;;;;;;;;;;;;;;;;4260533;33;20377;-96
2021/05/03 09:12:40;;;;;;;;;;;;;;;;;;4274148;33;19957;-96
2021/05/03 09:15:47;;;;;;;;;;;;;;;;;;4256018;33;19950;-96
2021/05/03 09:19:38;;;;;;;;;;;;;;;;;;4258761;33;20333;-96
2021/05/03 09:23:13;;;;;;;;;;;;;;;;;;4261755;33;19961;-96
2021/05/03 09:26:15;;;;;;;;;;;;;;;;;;4246943;33;19957;-96
2021/05/03 09:29:14;;;;;;;;;;;;;;;;;;4254301;33;20018;-96
2021/05/03 09:32:05;;;;;;;;;;;;;;;;;;4258510;33;19964;-96
2021/05/03 09:35:29;;;;;;;;;;;;;;;;;;;;;
2021/05/03 09:39:10;;;;;;;;;;;;;;;;;;4265507;33;20002;-96
2021/05/03 09:42:09;;;;;;;;;;;;;;;;;;4261925;33;19982;-96
2021/05/03 09:48:38;;;;;;;;;;;;;;;;;;4257097;33;19958;-96
2021/05/03 09:51:47;;;;;;;;;;;;;;;;;;4259283;33;19961;-96
2021/05/03 09:54:25;;;;;;;;;;;;;;;;;;4259067;33;19958;-96
2021/05/03 09:57:29;;;;;;;;;;;;;;;;;;4254707;33;19953;-96
2021/05/03 10:00:19;;;;;;;;;;;;;;;;;;4282926;33;19961;-96
2021/05/03 10:03:20;;;;;;;;;;;;;;;;;;4319519;32;19958;-95
2021/05/03 10:06:11;;;;;;;;;;;;;;;;;;4342813;33;20019;-96
2021/05/03 10:12:52;;;;;;;;;;;;;;;;;;4388805;32;20000;-96
2021/05/03 10:15:28;;;;;;;;;;;;;;;;;;4377499;32;19982;-95
2021/05/03 10:21:09;;;;;;;;;;;;;;;;;;4379989;32;20010;-95
2021/05/03 10:24:01;;;;;;;;;;;;;;;;;;4385942;32;20363;-95
2021/05/03 10:26:36;;;;;;;;;;;;;;;;;;4388021;32;20448;-96
2021/05/03 10:29:20;;;;;;;;;;;;;;;;;;4385028;32;19973;-96
2021/05/03 10:31:53;;;;;;;;;;;;;;;;;;4373985;32;19988;-96
2021/05/03 10:34:44;;;;;;;;;;;;;;;;;;4375984;32;19954;-96
2021/05/03 10:37:53;;;;;;;;;;;;;;;;;;4393790;32;20091;-96
2021/05/03 10:40:28;;;;;;;;;;;;;;;;;;4379526;32;20083;-94
2021/05/03 10:43:28;;;;;;;;;;;;;;;;;;4386590;32;19966;-95
2021/05/03 10:48:59;;;;;;;;;;;;;;;;;;4394712;32;20027;-95
2021/05/03 10:51:42;;;;;;;;;;;;;;;;;;4376053;32;20378;-96
2021/05/03 10:54:29;;;;;;;;;;;;;;;;;;4386566;32;20216;-95
2021/05/03 10:57:14;;;;;;;;;;;;;;;;;;4372872;32;19978;-96
2021/05/03 10:59:55;;;;;;;;;;;;;;;;;;4380728;32;19961;-95
2021/05/03 11:02:39;;;;;;;;;;;;;;;;;;4388425;32;19966;-94
2021/05/03 11:05:28;;;;;;;;;;;;;;;;;;4368008;32;20128;-96
2021/05/03 11:08:31;;;;;;;;;;;;;;;;;;4374813;32;19951;-96
2021/05/03 11:11:12;;;;;;;;;;;;;;;;;;4386437;32;19962;-94
2021/05/03 11:13:56;;;;;;;;;;;;;;;;;;4373784;32;20021;-96
2021/05/03 11:16:30;;;;;;;;;;;;;;;;;;4381214;32;20259;-96
2021/05/03 11:19:05;;;;;;;;;;;;;;;;;;4397858;32;19968;-96
2021/05/03 11:21:55;;;;;;;;;;;;;;;;;;4375289;32;20000;-96
2021/05/03 11:24:27;;;;;;;;;;;;;;;;;;4382345;32;20433;-95
2021/05/03 11:27:02;;;;;;;;;;;;;;;;;;4371081;32;20010;-95
2021/05/03 11:32:23;;;;;;;;;;;;;;;;;;4380479;32;19962;-96
2021/05/03 11:35:10;;;;;;;;;;;;;;;;;;4385500;32;20563;-96
2021/05/03 11:37:41;;;;;;;;;;;;;;;;;;4390184;32;20062;-96
2021/05/03 11:43:45;;;;;;;;;;;;;;;;;;4387706;32;19958;-96
2021/05/03 11:46:07;;;;;;;;;;;;;;;;;;4385783;32;19982;-95
2021/05/03 11:48:47;;;;;;;;;;;;;;;;;;4401557;32;19946;-96
2021/05/03 11:51:44;;;;;;;;;;;;;;;;;;4406988;32;19923;-96
2021/05/03 11:55:02;;;;;;;;;;;;;;;;;;4405434;32;20150;-96
2021/05/03 11:58:13;;;;;;;;;;;;;;;;;;4376985;32;19966;-96
2021/05/03 12:00:55;;;;;;;;;;;;;;;;;;4421600;27;20679;-82
2021/05/03 12:03:44;;;;;;;;;;;;;;;;;;4401911;32;19965;-82
2021/05/03 12:06:32;;;;;;;;;;;;;;;;;;4411010;32;19977;-82
2021/05/03 12:09:02;;;;;;;;;;;;;;;;;;4409307;32;20002;-83
2021/05/03 12:11:33;;;;;;;;;;;;;;;;;;4413699;32;20013;-82
2021/05/03 12:14:03;;;;;;;;;;;;;;;;;;4407820;32;20236;-83
2021/05/03 12:16:34;;;;;;;;;;;;;;;;;;4404526;32;19954;-85
2021/05/03 12:19:05;;;;;;;;;;;;;;;;;;4408985;32;20377;-84
2021/05/03 12:21:35;;;;;;;;;;;;;;;;;;4406058;32;20911;-85
2021/05/03 12:24:05;;;;;;;;;;;;;;;;;;4397842;32;19998;-84
2021/05/03 12:26:35;;;;;;;;;;;;;;;;;;4390630;32;20045;-85
2021/05/03 12:29:06;;;;;;;;;;;;;;;;;;4412611;32;20408;-84
2021/05/03 12:31:37;;;;;;;;;;;;;;;;;;4413282;32;19975;-84
2021/05/03 12:34:07;;;;;;;;;;;;;;;;;;4414198;32;19950;-85
2021/05/03 12:36:37;;;;;;;;;;;;;;;;;;4409230;32;19988;-85
2021/05/03 12:39:08;;;;;;;;;;;;;;;;;;4410052;32;19955;-84
2021/05/03 12:41:38;;;;;;;;;;;;;;;;;;4412177;32;20005;-85
2021/05/03 12:44:08;;;;;;;;;;;;;;;;;;4395969;32;19973;-85
2021/05/03 12:46:41;;;;;;;;;;;;;;;;;;4405057;32;19985;-85
2021/05/03 12:49:16;;;;;;;;;;;;;;;;;;4409754;32;19992;-84
2021/05/03 12:51:52;;;;;;;;;;;;;;;;;;4409749;32;20449;-84
2021/05/03 12:54:33;;;;;;;;;;;;;;;;;;4405974;32;19973;-84
2021/05/03 12:57:18;;;;;;;;;;;;;;;;;;4408807;32;20380;-85
2021/05/03 13:00:04;;;;;;;;;;;;;;;;;;4398142;32;20003;-84
2021/05/03 13:02:53;;;;;;;;;;;;;;;;;;4406073;32;20303;-84
2021/05/03 13:05:29;;;;;;;;;;;;;;;;;;4405325;32;19976;-84
2021/05/03 13:08:27;;;;;;;;;;;;;;;;;;4408790;32;20050;-84
2021/05/03 13:22:32;;;;;;;;;;;;;;;;;;4370620;32;19973;-84
2021/05/03 13:25:11;;;;;;;;;;;;;;;;;;4367525;32;19996;-85
2021/05/03 13:30:30;;;;;;;;;;;;;;;;;;4410490;32;19960;-85
2021/05/03 13:33:01;;;;;;;;;;;;;;;;;;4403909;32;20033;-84
2021/05/03 13:35:31;;;;;;;;;;;;;;;;;;4411040;32;20023;-85
2021/05/03 13:38:01;;;;;;;;;;;;;;;;;;4402189;32;19955;-84
2021/05/03 13:40:32;;;;;;;;;;;;;;;;;;4410431;32;19958;-84
2021/05/03 13:43:00;;;;;;;;;;;;;;;;;;4408566;32;20407;-83
2021/05/03 13:45:31;;;;;;;;;;;;;;;;;;4410102;32;20393;-85
2021/05/03 13:47:59;;;;;;;;;;;;;;;;;;4414473;32;19962;-84
2021/05/03 13:50:29;;;;;;;;;;;;;;;;;;4412039;32;20009;-84
2021/05/03 13:52:59;;;;;;;;;;;;;;;;;;4404725;32;20371;-84
2021/05/03 13:55:31;;;;;;;;;;;;;;;;;;4394342;32;19973;-84
2021/05/03 13:57:59;;;;;;;;;;;;;;;;;;4412539;32;20381;-84
2021/05/03 14:00:29;;;;;;;;;;;;;;;;;;4413703;32;19950;-85
2021/05/03 14:02:57;;;;;;;;;;;;;;;;;;4411598;32;20484;-84
2021/05/03 14:05:28;;;;;;;;;;;;;;;;;;4411968;32;19951;-85
2021/05/03 14:07:58;;;;;;;;;;;;;;;;;;4410996;32;19973;-84
2021/05/03 14:10:29;;;;;;;;;;;;;;;;;;4410209;32;19959;-85
2021/05/03 14:12:59;;;;;;;;;;;;;;;;;;4394624;32;20374;-84
2021/05/03 14:15:32;;;;;;;;;;;;;;;;;;4417461;32;19980;-85
2021/05/03 14:18:02;;;;;;;;;;;;;;;;;;4418255;32;20015;-84
2021/05/03 14:20:32;;;;;;;;;;;;;;;;;;4415641;32;19958;-83
2021/05/03 14:23:02;;;;;;;;;;;;;;;;;;4414616;32;20286;-84
2021/05/03 14:25:35;;;;;;;;;;;;;;;;;;4414849;32;20078;-84
2021/05/03 14:28:09;;;;;;;;;;;;;;;;;;4402289;32;20421;-85
2021/05/03 14:33:28;;;;;;;;;;;;;;;;;;4414147;32;20013;-84
2021/05/03 14:35:58;;;;;;;;;;;;;;;;;;4415770;32;20019;-84
2021/05/03 14:38:26;;;;;;;;;;;;;;;;;;4401914;32;19993;-85
2021/05/03 14:40:54;;;;;;;;;;;;;;;;;;4412889;32;20031;-84
2021/05/03 14:43:24;;;;;;;;;;;;;;;;;;4401945;32;19953;-84
2021/05/03 14:45:59;;;;;;;;;;;;;;;;;;4416890;32;19950;-84
2021/05/03 14:56:07;;;;;;;;;;;;;;;;;;4405202;32;20000;-84
2021/05/03 14:58:38;;;;;;;;;;;;;;;;;;4411674;32;20017;-85
2021/05/03 15:01:08;;;;;;;;;;;;;;;;;;4407128;32;20051;-85
2021/05/03 15:03:38;;;;;;;;;;;;;;;;;;4412196;32;19991;-85
2021/05/03 15:06:06;;;;;;;;;;;;;;;;;;4414609;32;19994;-84
2021/05/03 15:08:36;;;;;;;;;;;;;;;;;;4414490;32;20488;-85
2021/05/03 15:11:06;;;;;;;;;;;;;;;;;;4411806;32;20336;-84
2021/05/03 15:13:41;;;;;;;;;;;;;;;;;;4410869;32;19958;-84
2021/05/03 15:24:02;;;;;;;;;;;;;;;;;;4409356;32;19996;-84
2021/05/03 15:26:34;;;;;;;;;;;;;;;;;;4412430;32;19978;-85
2021/05/03 15:29:13;;;;;;;;;;;;;;;;;;4411792;32;19962;-84
2021/05/03 15:34:17;;;;;;;;;;;;;;;;;;4399193;32;20449;-84
2021/05/03 15:36:48;;;;;;;;;;;;;;;;;;4413635;32;19972;-84
2021/05/03 15:39:18;;;;;;;;;;;;;;;;;;4409878;32;20288;-85
2021/05/03 15:41:46;;;;;;;;;;;;;;;;;;4400487;32;19950;-84
2021/05/03 15:44:19;;;;;;;;;;;;;;;;;;4398674;32;20019;-83
2021/05/03 15:46:50;;;;;;;;;;;;;;;;;;4415152;32;20023;-84
2021/05/03 15:49:20;;;;;;;;;;;;;;;;;;4412080;32;19976;-84
2021/05/03 15:51:50;;;;;;;;;;;;;;;;;;4414440;32;20017;-84
2021/05/03 15:54:21;;;;;;;;;;;;;;;;;;4408308;32;19980;-83
2021/05/03 15:56:51;;;;;;;;;;;;;;;;;;4388839;32;19954;-85
2021/05/03 15:59:21;;;;;;;;;;;;;;;;;;4407694;32;19973;-84
2021/05/03 16:01:52;;;;;;;;;;;;;;;;;;4408517;32;19981;-83
2021/05/03 16:04:21;;;;;;;;;;;;;;;;;;4411195;32;20162;-84
2021/05/03 16:06:51;;;;;;;;;;;;;;;;;;4416032;32;19996;-84
2021/05/03 16:09:21;;;;;;;;;;;;;;;;;;4411896;32;20394;-84
2021/05/03 16:11:49;;;;;;;;;;;;;;;;;;4388630;32;19962;-84
2021/05/03 16:14:20;;;;;;;;;;;;;;;;;;4410765;32;19950;-84
2021/05/03 16:16:49;;;;;;;;;;;;;;;;;;4408413;32;20020;-84
2021/05/03 16:19:20;;;;;;;;;;;;;;;;;;4413814;32;19962;-83
2021/05/03 16:21:50;;;;;;;;;;;;;;;;;;4399782;32;19969;-83
2021/05/03 16:24:20;;;;;;;;;;;;;;;;;;4400277;32;19950;-84
2021/05/03 16:26:50;;;;;;;;;;;;;;;;;;4410730;32;19957;-84
2021/05/03 16:29:20;;;;;;;;;;;;;;;;;;4411770;32;19946;-84
2021/05/03 16:31:51;;;;;;;;;;;;;;;;;;4412932;32;19968;-84
2021/05/03 16:34:21;;;;;;;;;;;;;;;;;;4405468;32;21014;-84
2021/05/03 16:36:51;;;;;;;;;;;;;;;;;;4411457;32;20125;-83
2021/05/03 16:39:22;;;;;;;;;;;;;;;;;;4393233;32;19991;-85
2021/05/03 16:41:52;;;;;;;;;;;;;;;;;;4407793;32;20371;-83
2021/05/03 16:44:23;;;;;;;;;;;;;;;;;;4404882;32;19965;-84
2021/05/03 16:46:51;;;;;;;;;;;;;;;;;;4413193;32;19953;-84
2021/05/03 16:49:21;;;;;;;;;;;;;;;;;;4413137;32;20370;-84
2021/05/03 16:51:53;;;;;;;;;;;;;;;;;;4414641;32;20381;-83
2021/05/03 16:54:23;;;;;;;;;;;;;;;;;;4408551;32;20011;-84
2021/05/03 16:56:53;;;;;;;;;;;;;;;;;;4408421;32;20014;-84
2021/05/03 16:59:23;;;;;;;;;;;;;;;;;;4409321;32;19974;-84
2021/05/03 17:01:53;;;;;;;;;;;;;;;;;;4406837;32;19950;-84
2021/05/03 17:04:21;;;;;;;;;;;;;;;;;;4407387;32;19970;-84
2021/05/03 17:06:51;;;;;;;;;;;;;;;;;;4409340;32;19962;-85
2021/05/03 17:09:22;;;;;;;;;;;;;;;;;;4391938;32;19981;-84
2021/05/03 17:11:53;;;;;;;;;;;;;;;;;;4405597;32;20244;-83
2021/05/03 17:14:23;;;;;;;;;;;;;;;;;;4401283;32;19973;-85
2021/05/03 17:16:54;;;;;;;;;;;;;;;;;;4405535;32;19973;-85
2021/05/03 17:19:23;;;;;;;;;;;;;;;;;;4403052;32;19959;-84
2021/05/03 17:21:52;;;;;;;;;;;;;;;;;;4404551;32;19950;-85
2021/05/03 17:24:22;;;;;;;;;;;;;;;;;;4390528;32;19964;-84
2021/05/03 17:26:53;;;;;;;;;;;;;;;;;;4403276;32;20415;-84
2021/05/03 17:29:23;;;;;;;;;;;;;;;;;;4404048;32;19994;-84
2021/05/03 17:31:53;;;;;;;;;;;;;;;;;;4408485;32;19977;-84
2021/05/03 17:34:23;;;;;;;;;;;;;;;;;;4409494;32;20304;-84
2021/05/03 17:36:54;;;;;;;;;;;;;;;;;;4411843;32;20017;-84
2021/05/03 17:39:24;;;;;;;;;;;;;;;;;;4405513;32;19951;-84
2021/05/03 17:41:52;;;;;;;;;;;;;;;;;;4409385;32;19965;-85
2021/05/03 17:44:24;;;;;;;;;;;;;;;;;;4409918;32;19976;-84
2021/05/03 17:46:52;;;;;;;;;;;;;;;;;;4405205;32;19981;-84
2021/05/03 17:49:23;;;;;;;;;;;;;;;;;;4397550;32;20460;-84
2021/05/03 17:51:53;;;;;;;;;;;;;;;;;;4398052;32;20698;-84
2021/05/03 17:54:21;;;;;;;;;;;;;;;;;;4403314;32;20327;-84
2021/05/03 17:56:52;;;;;;;;;;;;;;;;;;4393695;32;20122;-84
2021/05/03 17:59:20;;;;;;;;;;;;;;;;;;4401907;32;19958;-85
2021/05/03 18:01:50;;;;;;;;;;;;;;;;;;4406794;32;19962;-84
2021/05/03 18:04:20;;;;;;;;;;;;;;;;;;4410551;32;20306;-84
2021/05/03 18:06:50;;;;;;;;;;;;;;;;;;4405819;32;19958;-84
2021/05/03 18:09:21;;;;;;;;;;;;;;;;;;4408286;32;20016;-85
2021/05/03 18:11:51;;;;;;;;;;;;;;;;;;4406987;32;19953;-84
2021/05/03 18:14:25;;;;;;;;;;;;;;;;;;4397153;32;19958;-84
2021/05/03 18:16:55;;;;;;;;;;;;;;;;;;4395327;32;19969;-84
2021/05/03 18:19:32;;;;;;;;;;;;;;;;;;4388636;32;20469;-84
2021/05/03 18:22:04;;;;;;;;;;;;;;;;;;4404369;32;19965;-83
2021/05/03 18:24:36;;;;;;;;;;;;;;;;;;4401590;32;20573;-85
2021/05/03 18:27:06;;;;;;;;;;;;;;;;;;4402512;32;20004;-84
2021/05/03 18:29:37;;;;;;;;;;;;;;;;;;4397108;32;20355;-85
2021/05/03 18:32:07;;;;;;;;;;;;;;;;;;4397206;32;20137;-85
2021/05/03 18:34:37;;;;;;;;;;;;;;;;;;4408700;32;19949;-84
2021/05/03 18:37:07;;;;;;;;;;;;;;;;;;4409131;32;20438;-85
2021/05/03 18:39:38;;;;;;;;;;;;;;;;;;4399132;32;20006;-84
2021/05/03 18:42:08;;;;;;;;;;;;;;;;;;4387564;32;20523;-84
2021/05/03 18:44:38;;;;;;;;;;;;;;;;;;4405844;32;19958;-84
2021/05/03 18:47:08;;;;;;;;;;;;;;;;;;4402911;32;19968;-84
2021/05/03 18:49:46;;;;;;;;;;;;;;;;;;4399913;32;20036;-85
2021/05/03 18:52:16;;;;;;;;;;;;;;;;;;4403097;32;20001;-84
2021/05/03 18:54:48;;;;;;;;;;;;;;;;;;4409256;32;20051;-84
2021/05/03 18:57:18;;;;;;;;;;;;;;;;;;4410915;32;19992;-84
2021/05/03 18:59:48;;;;;;;;;;;;;;;;;;4401846;32;20016;-84
2021/05/03 19:02:16;;;;;;;;;;;;;;;;;;4403813;32;20355;-84
2021/05/03 19:04:47;;;;;;;;;;;;;;;;;;4388865;32;19994;-85
2021/05/03 19:07:21;;;;;;;;;;;;;;;;;;4387940;32;20017;-84
2021/05/03 19:09:51;;;;;;;;;;;;;;;;;;4376208;32;19966;-85
2021/05/03 19:12:21;;;;;;;;;;;;;;;;;;4400930;32;20054;-85
2021/05/03 19:14:51;;;;;;;;;;;;;;;;;;4406963;32;19961;-84
2021/05/03 19:17:22;;;;;;;;;;;;;;;;;;4406354;32;20009;-84
2021/05/03 19:19:53;;;;;;;;;;;;;;;;;;4393424;32;20017;-84
2021/05/03 19:22:23;;;;;;;;;;;;;;;;;;4391486;32;20021;-84
2021/05/03 19:24:53;;;;;;;;;;;;;;;;;;4409806;32;19958;-84
2021/05/03 19:27:24;;;;;;;;;;;;;;;;;;4413354;32;20288;-84
2021/05/03 19:29:55;;;;;;;;;;;;;;;;;;4410105;32;19965;-84
2021/05/03 19:32:34;;;;;;;;;;;;;;;;;;4400874;32;20313;-84
2021/05/03 19:35:05;;;;;;;;;;;;;;;;;;4405396;32;19951;-84
2021/05/03 19:37:36;;;;;;;;;;;;;;;;;;4410143;32;20510;-84
2021/05/03 19:40:07;;;;;;;;;;;;;;;;;;4393376;32;20093;-83
2021/05/03 19:42:37;;;;;;;;;;;;;;;;;;4392966;32;20018;-83
2021/05/03 19:45:07;;;;;;;;;;;;;;;;;;4414205;32;19987;-84
2021/05/03 19:47:56;;;;;;;;;;;;;;;;;;4411396;32;20010;-84
2021/05/03 19:50:33;;;;;;;;;;;;;;;;;;4414337;32;19950;-83
2021/05/03 19:53:27;;;;;;;;;;;;;;;;;;4411441;32;19986;-84
2021/05/03 19:56:30;;;;;;;;;;;;;;;;;;4408600;32;20010;-84
2021/05/03 20:04:38;;;;;;;;;;;;;;;;;;4409923;32;20295;-84
2021/05/03 20:07:12;;;;;;;;;;;;;;;;;;4415000;32;19999;-84
2021/05/03 20:09:41;;;;;;;;;;;;;;;;;;4407473;32;20134;-84
2021/05/03 20:12:11;;;;;;;;;;;;;;;;;;4393672;32;20025;-84
2021/05/03 20:14:42;;;;;;;;;;;;;;;;;;4409620;32;19988;-84
2021/05/03 20:17:13;;;;;;;;;;;;;;;;;;4392623;32;19954;-84
2021/05/03 20:19:44;;;;;;;;;;;;;;;;;;4402173;32;20022;-84